sensor_id;sensor_type;location;lat;lon;timestamp;P1;durP1;ratioP1;P2;durP2;ratioP2
26963;SDS011;14521;48.148;-1.656;2023-08-06T00:01:11;4.88;;;1.08;;
26963;SDS011;14521;48.148;-1.656;2023-08-06T00:04:34;2.72;;;1.50;;
26963;SDS011;14521;48.148;-1.656;2023-08-06T00:07:56;2.05;;;1.10;;
26963;SDS011;14521;48.148;-1.656;2023-08-06T00:11:19;3.55;;;1.05;;
26963;SDS011;14521;48.148;-1.656;2023-08-06T00:14:41;2.45;;;1.10;;
26963;SDS011;14521;48.148;-1.656;2023-08-06T00:18:04;4.38;;;1.27;;
26963;SDS011;14521;48.148;-1.656;2023-08-06T00:21:26;5.43;;;1.30;;
26963;SDS011;14521;48.148;-1.656;2023-08-06T00:24:48;4.07;;;1.20;;
26963;SDS011;14521;48.148;-1.656;2023-08-06T00:28:11;2.13;;;0.80;;
26963;SDS011;14521;48.148;-1.656;2023-08-06T00:31:33;1.83;;;1.13;;
26963;SDS011;14521;48.148;-1.656;2023-08-06T00:34:56;3.45;;;0.93;;
26963;SDS011;14521;48.148;-1.656;2023-08-06T00:38:19;2.10;;;0.77;;
26963;SDS011;14521;48.148;-1.656;2023-08-06T00:41:42;1.75;;;1.00;;
26963;SDS011;14521;48.148;-1.656;2023-08-06T00:45:04;2.58;;;1.00;;
26963;SDS011;14521;48.148;-1.656;2023-08-06T00:48:27;4.05;;;1.00;;
26963;SDS011;14521;48.148;-1.656;2023-08-06T00:51:49;2.15;;;1.00;;
26963;SDS011;14521;48.148;-1.656;2023-08-06T00:55:12;2.95;;;1.30;;
26963;SDS011;14521;48.148;-1.656;2023-08-06T00:58:35;1.42;;;1.13;;
26963;SDS011;14521;48.148;-1.656;2023-08-06T01:01:58;1.42;;;0.73;;
26963;SDS011;14521;48.148;-1.656;2023-08-06T01:05:20;4.85;;;1.10;;
26963;SDS011;14521;48.148;-1.656;2023-08-06T01:12:25;2.92;;;0.93;;
26963;SDS011;14521;48.148;-1.656;2023-08-06T01:16:05;1.27;;;0.85;;
26963;SDS011;14521;48.148;-1.656;2023-08-06T01:19:29;3.03;;;0.90;;
26963;SDS011;14521;48.148;-1.656;2023-08-06T01:22:51;4.53;;;1.30;;
26963;SDS011;14521;48.148;-1.656;2023-08-06T01:26:19;2.60;;;1.38;;
26963;SDS011;14521;48.148;-1.656;2023-08-06T01:37:09;4.15;;;1.00;;
26963;SDS011;14521;48.148;-1.656;2023-08-06T01:40:32;2.47;;;0.90;;
26963;SDS011;14521;48.148;-1.656;2023-08-06T01:43:55;1.90;;;0.93;;
26963;SDS011;14521;48.148;-1.656;2023-08-06T01:47:18;2.72;;;0.80;;
26963;SDS011;14521;48.148;-1.656;2023-08-06T01:50:40;5.03;;;0.85;;
26963;SDS011;14521;48.148;-1.656;2023-08-06T01:54:02;1.67;;;0.75;;
26963;SDS011;14521;48.148;-1.656;2023-08-06T01:57:25;2.33;;;1.10;;
26963;SDS011;14521;48.148;-1.656;2023-08-06T02:00:47;3.05;;;0.82;;
26963;SDS011;14521;48.148;-1.656;2023-08-06T02:04:09;2.15;;;0.90;;
26963;SDS011;14521;48.148;-1.656;2023-08-06T02:07:31;2.50;;;0.88;;
26963;SDS011;14521;48.148;-1.656;2023-08-06T02:10:54;1.63;;;0.70;;
26963;SDS011;14521;48.148;-1.656;2023-08-06T02:14:35;1.73;;;0.93;;
26963;SDS011;14521;48.148;-1.656;2023-08-06T02:17:57;1.52;;;0.95;;
26963;SDS011;14521;48.148;-1.656;2023-08-06T02:21:19;2.13;;;0.80;;
26963;SDS011;14521;48.148;-1.656;2023-08-06T02:24:42;1.70;;;0.80;;
26963;SDS011;14521;48.148;-1.656;2023-08-06T02:28:04;5.35;;;0.60;;
26963;SDS011;14521;48.148;-1.656;2023-08-06T02:31:27;2.75;;;1.13;;
26963;SDS011;14521;48.148;-1.656;2023-08-06T02:34:49;1.77;;;0.85;;
26963;SDS011;14521;48.148;-1.656;2023-08-06T02:38:11;1.58;;;0.90;;
26963;SDS011;14521;48.148;-1.656;2023-08-06T02:41:35;2.63;;;0.80;;
26963;SDS011;14521;48.148;-1.656;2023-08-06T02:44:57;4.38;;;0.88;;
26963;SDS011;14521;48.148;-1.656;2023-08-06T02:48:20;2.47;;;1.00;;
26963;SDS011;14521;48.148;-1.656;2023-08-06T02:51:44;1.88;;;0.75;;
26963;SDS011;14521;48.148;-1.656;2023-08-06T02:55:07;1.92;;;0.75;;
26963;SDS011;14521;48.148;-1.656;2023-08-06T02:58:34;4.35;;;0.73;;
26963;SDS011;14521;48.148;-1.656;2023-08-06T03:02:12;2.85;;;0.80;;
26963;SDS011;14521;48.148;-1.656;2023-08-06T03:05:54;3.08;;;0.88;;
26963;SDS011;14521;48.148;-1.656;2023-08-06T03:09:27;2.35;;;1.05;;
26963;SDS011;14521;48.148;-1.656;2023-08-06T03:12:50;4.85;;;1.20;;
26963;SDS011;14521;48.148;-1.656;2023-08-06T03:16:14;2.53;;;1.00;;
26963;SDS011;14521;48.148;-1.656;2023-08-06T03:19:36;2.85;;;0.90;;
26963;SDS011;14521;48.148;-1.656;2023-08-06T03:22:59;1.60;;;0.60;;
26963;SDS011;14521;48.148;-1.656;2023-08-06T03:26:24;3.38;;;0.73;;
26963;SDS011;14521;48.148;-1.656;2023-08-06T03:29:48;4.35;;;0.90;;
26963;SDS011;14521;48.148;-1.656;2023-08-06T03:33:14;2.28;;;0.85;;
26963;SDS011;14521;48.148;-1.656;2023-08-06T03:36:38;2.15;;;0.80;;
26963;SDS011;14521;48.148;-1.656;2023-08-06T03:40:01;2.15;;;0.60;;
26963;SDS011;14521;48.148;-1.656;2023-08-06T03:43:25;1.67;;;0.80;;
26963;SDS011;14521;48.148;-1.656;2023-08-06T03:46:49;2.63;;;1.17;;
26963;SDS011;14521;48.148;-1.656;2023-08-06T03:50:12;4.30;;;0.90;;
26963;SDS011;14521;48.148;-1.656;2023-08-06T03:53:34;2.28;;;0.95;;
26963;SDS011;14521;48.148;-1.656;2023-08-06T03:56:57;2.40;;;0.90;;
26963;SDS011;14521;48.148;-1.656;2023-08-06T04:00:19;3.65;;;0.82;;
26963;SDS011;14521;48.148;-1.656;2023-08-06T04:03:47;2.10;;;0.70;;
26963;SDS011;14521;48.148;-1.656;2023-08-06T04:07:09;2.50;;;0.63;;
26963;SDS011;14521;48.148;-1.656;2023-08-06T04:10:32;4.63;;;0.57;;
26963;SDS011;14521;48.148;-1.656;2023-08-06T04:13:55;3.95;;;0.82;;
26963;SDS011;14521;48.148;-1.656;2023-08-06T04:17:19;4.25;;;0.80;;
26963;SDS011;14521;48.148;-1.656;2023-08-06T04:20:42;1.30;;;0.70;;
26963;SDS011;14521;48.148;-1.656;2023-08-06T04:24:06;3.87;;;0.77;;
26963;SDS011;14521;48.148;-1.656;2023-08-06T04:27:28;1.73;;;0.57;;
26963;SDS011;14521;48.148;-1.656;2023-08-06T04:30:51;2.67;;;0.68;;
26963;SDS011;14521;48.148;-1.656;2023-08-06T04:34:15;1.25;;;0.60;;
26963;SDS011;14521;48.148;-1.656;2023-08-06T04:37:37;2.55;;;0.88;;
26963;SDS011;14521;48.148;-1.656;2023-08-06T04:41:01;2.25;;;0.93;;
26963;SDS011;14521;48.148;-1.656;2023-08-06T04:44:25;2.45;;;0.85;;
26963;SDS011;14521;48.148;-1.656;2023-08-06T04:47:48;1.73;;;0.60;;
26963;SDS011;14521;48.148;-1.656;2023-08-06T04:51:10;2.75;;;0.75;;
26963;SDS011;14521;48.148;-1.656;2023-08-06T04:54:33;2.42;;;0.70;;
26963;SDS011;14521;48.148;-1.656;2023-08-06T04:57:55;1.60;;;0.68;;
26963;SDS011;14521;48.148;-1.656;2023-08-06T05:01:18;3.80;;;0.55;;
26963;SDS011;14521;48.148;-1.656;2023-08-06T05:04:40;1.63;;;0.75;;
26963;SDS011;14521;48.148;-1.656;2023-08-06T05:08:02;2.42;;;0.70;;
26963;SDS011;14521;48.148;-1.656;2023-08-06T05:11:25;1.92;;;0.80;;
26963;SDS011;14521;48.148;-1.656;2023-08-06T05:14:47;2.97;;;0.70;;
26963;SDS011;14521;48.148;-1.656;2023-08-06T05:18:09;2.22;;;0.63;;
26963;SDS011;14521;48.148;-1.656;2023-08-06T05:21:32;2.58;;;0.82;;
26963;SDS011;14521;48.148;-1.656;2023-08-06T05:24:54;2.03;;;0.80;;
26963;SDS011;14521;48.148;-1.656;2023-08-06T05:28:16;1.80;;;0.65;;
26963;SDS011;14521;48.148;-1.656;2023-08-06T05:31:38;1.88;;;0.50;;
26963;SDS011;14521;48.148;-1.656;2023-08-06T05:35:01;4.10;;;1.35;;
26963;SDS011;14521;48.148;-1.656;2023-08-06T05:38:24;2.58;;;0.60;;
26963;SDS011;14521;48.148;-1.656;2023-08-06T05:41:46;4.28;;;0.70;;
26963;SDS011;14521;48.148;-1.656;2023-08-06T05:45:09;4.00;;;0.88;;
26963;SDS011;14521;48.148;-1.656;2023-08-06T05:48:31;3.55;;;0.77;;
26963;SDS011;14521;48.148;-1.656;2023-08-06T05:51:54;1.70;;;0.75;;
26963;SDS011;14521;48.148;-1.656;2023-08-06T05:55:16;4.43;;;0.77;;
26963;SDS011;14521;48.148;-1.656;2023-08-06T05:58:38;6.70;;;1.00;;
26963;SDS011;14521;48.148;-1.656;2023-08-06T06:02:01;1.98;;;0.63;;
26963;SDS011;14521;48.148;-1.656;2023-08-06T06:05:23;11.45;;;0.60;;
26963;SDS011;14521;48.148;-1.656;2023-08-06T06:08:45;4.50;;;0.80;;
26963;SDS011;14521;48.148;-1.656;2023-08-06T06:12:08;2.15;;;0.65;;
26963;SDS011;14521;48.148;-1.656;2023-08-06T06:15:30;3.88;;;0.63;;
26963;SDS011;14521;48.148;-1.656;2023-08-06T06:18:52;5.13;;;0.70;;
26963;SDS011;14521;48.148;-1.656;2023-08-06T06:22:16;2.83;;;0.75;;
26963;SDS011;14521;48.148;-1.656;2023-08-06T06:25:42;7.72;;;0.63;;
26963;SDS011;14521;48.148;-1.656;2023-08-06T06:29:05;3.78;;;0.70;;
26963;SDS011;14521;48.148;-1.656;2023-08-06T06:32:29;2.85;;;1.00;;
26963;SDS011;14521;48.148;-1.656;2023-08-06T06:35:51;1.75;;;0.50;;
26963;SDS011;14521;48.148;-1.656;2023-08-06T06:39:15;2.28;;;0.60;;
26963;SDS011;14521;48.148;-1.656;2023-08-06T06:42:37;2.55;;;0.60;;
26963;SDS011;14521;48.148;-1.656;2023-08-06T06:46:02;7.40;;;0.90;;
26963;SDS011;14521;48.148;-1.656;2023-08-06T06:49:24;6.95;;;0.98;;
26963;SDS011;14521;48.148;-1.656;2023-08-06T06:52:47;2.05;;;0.70;;
26963;SDS011;14521;48.148;-1.656;2023-08-06T06:56:09;1.05;;;0.68;;
26963;SDS011;14521;48.148;-1.656;2023-08-06T06:59:31;1.70;;;0.60;;
26963;SDS011;14521;48.148;-1.656;2023-08-06T07:02:53;2.67;;;0.88;;
26963;SDS011;14521;48.148;-1.656;2023-08-06T07:06:16;6.22;;;0.80;;
26963;SDS011;14521;48.148;-1.656;2023-08-06T07:09:40;4.80;;;0.75;;
26963;SDS011;14521;48.148;-1.656;2023-08-06T07:13:02;7.50;;;1.00;;
26963;SDS011;14521;48.148;-1.656;2023-08-06T07:16:24;3.25;;;1.00;;
26963;SDS011;14521;48.148;-1.656;2023-08-06T07:19:47;5.03;;;1.60;;
26963;SDS011;14521;48.148;-1.656;2023-08-06T07:23:09;5.40;;;1.00;;
26963;SDS011;14521;48.148;-1.656;2023-08-06T07:26:32;7.80;;;0.90;;
26963;SDS011;14521;48.148;-1.656;2023-08-06T07:29:54;8.20;;;0.80;;
26963;SDS011;14521;48.148;-1.656;2023-08-06T07:33:16;6.47;;;1.40;;
26963;SDS011;14521;48.148;-1.656;2023-08-06T07:36:38;7.90;;;1.30;;
26963;SDS011;14521;48.148;-1.656;2023-08-06T07:40:01;5.80;;;1.02;;
26963;SDS011;14521;48.148;-1.656;2023-08-06T07:43:23;9.25;;;1.10;;
26963;SDS011;14521;48.148;-1.656;2023-08-06T07:46:46;6.72;;;1.10;;
26963;SDS011;14521;48.148;-1.656;2023-08-06T07:50:08;6.20;;;1.00;;
26963;SDS011;14521;48.148;-1.656;2023-08-06T07:53:31;5.72;;;1.08;;
26963;SDS011;14521;48.148;-1.656;2023-08-06T07:56:53;6.47;;;1.50;;
26963;SDS011;14521;48.148;-1.656;2023-08-06T08:00:34;9.32;;;1.10;;
26963;SDS011;14521;48.148;-1.656;2023-08-06T08:03:57;13.10;;;1.40;;
26963;SDS011;14521;48.148;-1.656;2023-08-06T08:07:19;7.57;;;0.95;;
26963;SDS011;14521;48.148;-1.656;2023-08-06T08:10:42;3.85;;;0.80;;
26963;SDS011;14521;48.148;-1.656;2023-08-06T08:14:04;4.03;;;0.93;;
26963;SDS011;14521;48.148;-1.656;2023-08-06T08:17:27;6.70;;;1.17;;
26963;SDS011;14521;48.148;-1.656;2023-08-06T08:20:49;5.05;;;0.63;;
26963;SDS011;14521;48.148;-1.656;2023-08-06T08:24:11;14.65;;;1.15;;
26963;SDS011;14521;48.148;-1.656;2023-08-06T08:27:34;3.45;;;0.73;;
26963;SDS011;14521;48.148;-1.656;2023-08-06T08:30:56;4.90;;;0.73;;
26963;SDS011;14521;48.148;-1.656;2023-08-06T08:34:36;7.75;;;0.95;;
26963;SDS011;14521;48.148;-1.656;2023-08-06T08:37:59;3.00;;;0.65;;
26963;SDS011;14521;48.148;-1.656;2023-08-06T08:41:21;3.88;;;1.05;;
26963;SDS011;14521;48.148;-1.656;2023-08-06T08:44:43;4.40;;;1.10;;
26963;SDS011;14521;48.148;-1.656;2023-08-06T08:48:06;5.03;;;1.20;;
26963;SDS011;14521;48.148;-1.656;2023-08-06T08:51:28;8.27;;;1.10;;
26963;SDS011;14521;48.148;-1.656;2023-08-06T08:54:52;5.63;;;0.98;;
26963;SDS011;14521;48.148;-1.656;2023-08-06T08:58:15;4.68;;;1.13;;
26963;SDS011;14521;48.148;-1.656;2023-08-06T09:01:38;8.00;;;0.98;;
26963;SDS011;14521;48.148;-1.656;2023-08-06T09:05:02;4.78;;;0.95;;
26963;SDS011;14521;48.148;-1.656;2023-08-06T09:08:27;8.63;;;1.20;;
26963;SDS011;14521;48.148;-1.656;2023-08-06T09:11:58;4.05;;;0.60;;
26963;SDS011;14521;48.148;-1.656;2023-08-06T09:15:26;10.05;;;0.93;;
26963;SDS011;14521;48.148;-1.656;2023-08-06T09:18:49;7.47;;;0.80;;
26963;SDS011;14521;48.148;-1.656;2023-08-06T09:22:11;3.70;;;0.88;;
26963;SDS011;14521;48.148;-1.656;2023-08-06T09:25:37;5.45;;;0.93;;
26963;SDS011;14521;48.148;-1.656;2023-08-06T09:29:06;2.95;;;0.60;;
26963;SDS011;14521;48.148;-1.656;2023-08-06T09:32:45;4.00;;;0.60;;
26963;SDS011;14521;48.148;-1.656;2023-08-06T09:36:12;6.18;;;0.90;;
26963;SDS011;14521;48.148;-1.656;2023-08-06T09:39:34;6.07;;;1.20;;
26963;SDS011;14521;48.148;-1.656;2023-08-06T09:42:57;4.13;;;0.63;;
26963;SDS011;14521;48.148;-1.656;2023-08-06T09:46:20;4.10;;;0.70;;
26963;SDS011;14521;48.148;-1.656;2023-08-06T09:49:43;3.10;;;0.90;;
26963;SDS011;14521;48.148;-1.656;2023-08-06T09:53:07;12.48;;;0.68;;
26963;SDS011;14521;48.148;-1.656;2023-08-06T09:56:30;3.10;;;0.82;;
26963;SDS011;14521;48.148;-1.656;2023-08-06T09:59:59;1.80;;;0.40;;
26963;SDS011;14521;48.148;-1.656;2023-08-06T10:03:21;4.00;;;0.60;;
26963;SDS011;14521;48.148;-1.656;2023-08-06T10:06:48;2.03;;;0.40;;
26963;SDS011;14521;48.148;-1.656;2023-08-06T10:10:10;9.07;;;0.77;;
26963;SDS011;14521;48.148;-1.656;2023-08-06T10:13:33;2.90;;;0.50;;
26963;SDS011;14521;48.148;-1.656;2023-08-06T10:16:57;2.20;;;0.40;;
26963;SDS011;14521;48.148;-1.656;2023-08-06T10:20:20;3.15;;;0.55;;
26963;SDS011;14521;48.148;-1.656;2023-08-06T10:23:44;1.23;;;0.43;;
26963;SDS011;14521;48.148;-1.656;2023-08-06T10:27:21;2.25;;;0.45;;
26963;SDS011;14521;48.148;-1.656;2023-08-06T10:30:51;1.05;;;0.30;;
26963;SDS011;14521;48.148;-1.656;2023-08-06T10:34:15;1.23;;;0.30;;
26963;SDS011;14521;48.148;-1.656;2023-08-06T10:37:40;3.55;;;0.50;;
26963;SDS011;14521;48.148;-1.656;2023-08-06T10:41:07;2.58;;;0.30;;
26963;SDS011;14521;48.148;-1.656;2023-08-06T10:44:29;1.05;;;0.30;;
26963;SDS011;14521;48.148;-1.656;2023-08-06T10:47:53;0.40;;;0.20;;
26963;SDS011;14521;48.148;-1.656;2023-08-06T10:51:17;1.75;;;0.30;;
26963;SDS011;14521;48.148;-1.656;2023-08-06T10:54:39;2.20;;;0.38;;
26963;SDS011;14521;48.148;-1.656;2023-08-06T10:58:02;2.88;;;0.40;;
26963;SDS011;14521;48.148;-1.656;2023-08-06T11:01:24;1.98;;;0.50;;
26963;SDS011;14521;48.148;-1.656;2023-08-06T11:04:51;1.20;;;0.28;;
26963;SDS011;14521;48.148;-1.656;2023-08-06T11:08:22;3.50;;;0.40;;
26963;SDS011;14521;48.148;-1.656;2023-08-06T11:11:48;8.17;;;0.50;;
26963;SDS011;14521;48.148;-1.656;2023-08-06T11:15:11;2.33;;;0.47;;
26963;SDS011;14521;48.148;-1.656;2023-08-06T11:18:33;7.90;;;0.50;;
26963;SDS011;14521;48.148;-1.656;2023-08-06T11:21:55;4.88;;;0.43;;
26963;SDS011;14521;48.148;-1.656;2023-08-06T11:25:20;3.20;;;0.50;;
26963;SDS011;14521;48.148;-1.656;2023-08-06T11:32:05;1.40;;;0.30;;
26963;SDS011;14521;48.148;-1.656;2023-08-06T11:35:28;1.85;;;0.30;;
26963;SDS011;14521;48.148;-1.656;2023-08-06T11:38:50;1.27;;;0.40;;
26963;SDS011;14521;48.148;-1.656;2023-08-06T11:42:13;1.75;;;0.30;;
26963;SDS011;14521;48.148;-1.656;2023-08-06T11:45:35;1.23;;;0.30;;
26963;SDS011;14521;48.148;-1.656;2023-08-06T11:48:58;1.92;;;0.40;;
26963;SDS011;14521;48.148;-1.656;2023-08-06T11:52:21;0.88;;;0.50;;
26963;SDS011;14521;48.148;-1.656;2023-08-06T11:55:45;1.53;;;0.27;;
26963;SDS011;14521;48.148;-1.656;2023-08-06T11:59:08;1.67;;;0.43;;
26963;SDS011;14521;48.148;-1.656;2023-08-06T12:02:31;2.92;;;0.40;;
26963;SDS011;14521;48.148;-1.656;2023-08-06T12:05:58;1.25;;;0.47;;
26963;SDS011;14521;48.148;-1.656;2023-08-06T12:09:21;4.00;;;0.50;;
26963;SDS011;14521;48.148;-1.656;2023-08-06T12:12:43;2.58;;;0.40;;
26963;SDS011;14521;48.148;-1.656;2023-08-06T12:16:05;0.47;;;0.30;;
26963;SDS011;14521;48.148;-1.656;2023-08-06T12:19:28;5.88;;;0.57;;
26963;SDS011;14521;48.148;-1.656;2023-08-06T12:22:52;2.65;;;0.60;;
26963;SDS011;14521;48.148;-1.656;2023-08-06T12:26:14;0.95;;;0.20;;
26963;SDS011;14521;48.148;-1.656;2023-08-06T12:29:46;1.55;;;0.43;;
26963;SDS011;14521;48.148;-1.656;2023-08-06T12:33:09;4.10;;;0.50;;
26963;SDS011;14521;48.148;-1.656;2023-08-06T12:36:31;7.95;;;0.57;;
26963;SDS011;14521;48.148;-1.656;2023-08-06T12:39:54;0.43;;;0.20;;
26963;SDS011;14521;48.148;-1.656;2023-08-06T12:43:16;1.15;;;0.38;;
26963;SDS011;14521;48.148;-1.656;2023-08-06T12:46:38;1.70;;;0.30;;
26963;SDS011;14521;48.148;-1.656;2023-08-06T12:50:01;3.30;;;0.35;;
26963;SDS011;14521;48.148;-1.656;2023-08-06T12:53:23;2.75;;;0.30;;
26963;SDS011;14521;48.148;-1.656;2023-08-06T12:56:45;1.95;;;0.38;;
26963;SDS011;14521;48.148;-1.656;2023-08-06T13:00:08;1.45;;;0.20;;
26963;SDS011;14521;48.148;-1.656;2023-08-06T13:03:31;1.27;;;0.50;;
26963;SDS011;14521;48.148;-1.656;2023-08-06T13:06:54;1.25;;;0.40;;
26963;SDS011;14521;48.148;-1.656;2023-08-06T13:10:17;3.00;;;0.47;;
26963;SDS011;14521;48.148;-1.656;2023-08-06T13:13:39;2.42;;;0.50;;
26963;SDS011;14521;48.148;-1.656;2023-08-06T13:17:01;1.65;;;0.30;;
26963;SDS011;14521;48.148;-1.656;2023-08-06T13:20:24;2.45;;;0.40;;
26963;SDS011;14521;48.148;-1.656;2023-08-06T13:23:46;1.38;;;0.30;;
26963;SDS011;14521;48.148;-1.656;2023-08-06T13:27:09;1.90;;;0.45;;
26963;SDS011;14521;48.148;-1.656;2023-08-06T13:30:31;2.72;;;0.40;;
26963;SDS011;14521;48.148;-1.656;2023-08-06T13:33:54;0.90;;;0.35;;
26963;SDS011;14521;48.148;-1.656;2023-08-06T13:37:20;2.35;;;0.60;;
26963;SDS011;14521;48.148;-1.656;2023-08-06T13:40:42;0.52;;;0.35;;
26963;SDS011;14521;48.148;-1.656;2023-08-06T13:44:06;0.60;;;0.30;;
26963;SDS011;14521;48.148;-1.656;2023-08-06T13:47:28;0.50;;;0.20;;
26963;SDS011;14521;48.148;-1.656;2023-08-06T13:50:50;3.90;;;0.60;;
26963;SDS011;14521;48.148;-1.656;2023-08-06T13:54:13;0.82;;;0.43;;
26963;SDS011;14521;48.148;-1.656;2023-08-06T13:57:35;0.57;;;0.28;;
26963;SDS011;14521;48.148;-1.656;2023-08-06T14:00:58;2.08;;;0.45;;
26963;SDS011;14521;48.148;-1.656;2023-08-06T14:04:20;2.80;;;0.40;;
26963;SDS011;14521;48.148;-1.656;2023-08-06T14:07:42;2.60;;;0.80;;
26963;SDS011;14521;48.148;-1.656;2023-08-06T14:11:05;1.92;;;0.35;;
26963;SDS011;14521;48.148;-1.656;2023-08-06T14:14:28;2.28;;;0.60;;
26963;SDS011;14521;48.148;-1.656;2023-08-06T14:17:50;1.40;;;0.45;;
26963;SDS011;14521;48.148;-1.656;2023-08-06T14:21:12;1.75;;;0.45;;
26963;SDS011;14521;48.148;-1.656;2023-08-06T14:24:36;4.05;;;0.32;;
26963;SDS011;14521;48.148;-1.656;2023-08-06T14:27:59;2.78;;;0.60;;
26963;SDS011;14521;48.148;-1.656;2023-08-06T14:31:21;3.17;;;0.50;;
26963;SDS011;14521;48.148;-1.656;2023-08-06T14:34:44;1.13;;;0.47;;
26963;SDS011;14521;48.148;-1.656;2023-08-06T14:38:06;1.13;;;0.50;;
26963;SDS011;14521;48.148;-1.656;2023-08-06T14:41:29;0.70;;;0.20;;
26963;SDS011;14521;48.148;-1.656;2023-08-06T14:44:51;1.48;;;0.32;;
26963;SDS011;14521;48.148;-1.656;2023-08-06T14:48:13;0.88;;;0.30;;
26963;SDS011;14521;48.148;-1.656;2023-08-06T14:51:35;0.75;;;0.30;;
26963;SDS011;14521;48.148;-1.656;2023-08-06T14:54:59;1.50;;;0.57;;
26963;SDS011;14521;48.148;-1.656;2023-08-06T14:58:23;1.05;;;0.40;;
26963;SDS011;14521;48.148;-1.656;2023-08-06T15:01:46;3.50;;;0.40;;
26963;SDS011;14521;48.148;-1.656;2023-08-06T15:05:08;1.40;;;0.38;;
26963;SDS011;14521;48.148;-1.656;2023-08-06T15:08:30;1.13;;;0.50;;
26963;SDS011;14521;48.148;-1.656;2023-08-06T15:11:52;0.47;;;0.40;;
26963;SDS011;14521;48.148;-1.656;2023-08-06T15:15:15;0.85;;;0.32;;
26963;SDS011;14521;48.148;-1.656;2023-08-06T15:18:37;1.13;;;0.30;;
26963;SDS011;14521;48.148;-1.656;2023-08-06T15:21:59;0.98;;;0.30;;
26963;SDS011;14521;48.148;-1.656;2023-08-06T15:25:22;1.20;;;0.30;;
26963;SDS011;14521;48.148;-1.656;2023-08-06T15:28:44;1.95;;;0.50;;
26963;SDS011;14521;48.148;-1.656;2023-08-06T15:32:06;2.17;;;0.50;;
26963;SDS011;14521;48.148;-1.656;2023-08-06T15:35:28;1.23;;;0.38;;
26963;SDS011;14521;48.148;-1.656;2023-08-06T15:38:51;1.40;;;0.40;;
26963;SDS011;14521;48.148;-1.656;2023-08-06T15:42:13;1.23;;;0.50;;
26963;SDS011;14521;48.148;-1.656;2023-08-06T15:45:36;1.33;;;0.40;;
26963;SDS011;14521;48.148;-1.656;2023-08-06T15:48:58;2.85;;;0.50;;
26963;SDS011;14521;48.148;-1.656;2023-08-06T15:52:21;1.55;;;0.43;;
26963;SDS011;14521;48.148;-1.656;2023-08-06T15:55:43;1.67;;;0.30;;
26963;SDS011;14521;48.148;-1.656;2023-08-06T15:59:24;2.38;;;0.50;;
26963;SDS011;14521;48.148;-1.656;2023-08-06T16:02:53;2.38;;;0.32;;
26963;SDS011;14521;48.148;-1.656;2023-08-06T16:06:15;1.35;;;0.68;;
26963;SDS011;14521;48.148;-1.656;2023-08-06T16:09:38;0.63;;;0.45;;
26963;SDS011;14521;48.148;-1.656;2023-08-06T16:13:00;0.70;;;0.65;;
26963;SDS011;14521;48.148;-1.656;2023-08-06T16:16:22;0.68;;;0.40;;
26963;SDS011;14521;48.148;-1.656;2023-08-06T16:19:45;2.40;;;0.50;;
26963;SDS011;14521;48.148;-1.656;2023-08-06T16:23:07;1.70;;;0.50;;
26963;SDS011;14521;48.148;-1.656;2023-08-06T16:26:29;7.93;;;0.35;;
26963;SDS011;14521;48.148;-1.656;2023-08-06T16:29:52;4.43;;;0.60;;
26963;SDS011;14521;48.148;-1.656;2023-08-06T16:33:14;2.65;;;0.57;;
26963;SDS011;14521;48.148;-1.656;2023-08-06T16:36:37;1.27;;;0.60;;
26963;SDS011;14521;48.148;-1.656;2023-08-06T16:39:59;3.17;;;0.50;;
26963;SDS011;14521;48.148;-1.656;2023-08-06T16:43:25;8.40;;;0.50;;
26963;SDS011;14521;48.148;-1.656;2023-08-06T16:46:47;5.72;;;1.08;;
26963;SDS011;14521;48.148;-1.656;2023-08-06T16:50:09;3.60;;;0.70;;
26963;SDS011;14521;48.148;-1.656;2023-08-06T16:53:32;2.63;;;0.82;;
26963;SDS011;14521;48.148;-1.656;2023-08-06T16:56:54;7.05;;;0.70;;
26963;SDS011;14521;48.148;-1.656;2023-08-06T17:00:18;1.55;;;0.57;;
26963;SDS011;14521;48.148;-1.656;2023-08-06T17:03:40;1.08;;;0.50;;
26963;SDS011;14521;48.148;-1.656;2023-08-06T17:07:03;1.30;;;0.65;;
26963;SDS011;14521;48.148;-1.656;2023-08-06T17:10:25;3.35;;;0.63;;
26963;SDS011;14521;48.148;-1.656;2023-08-06T17:13:48;2.53;;;0.55;;
26963;SDS011;14521;48.148;-1.656;2023-08-06T17:17:10;3.33;;;0.60;;
26963;SDS011;14521;48.148;-1.656;2023-08-06T17:20:32;3.63;;;0.75;;
26963;SDS011;14521;48.148;-1.656;2023-08-06T17:23:56;2.72;;;0.60;;
26963;SDS011;14521;48.148;-1.656;2023-08-06T17:27:18;4.80;;;0.60;;
26963;SDS011;14521;48.148;-1.656;2023-08-06T17:30:40;0.73;;;0.45;;
26963;SDS011;14521;48.148;-1.656;2023-08-06T17:34:04;5.13;;;0.47;;
26963;SDS011;14521;48.148;-1.656;2023-08-06T17:37:26;2.10;;;0.52;;
26963;SDS011;14521;48.148;-1.656;2023-08-06T17:40:55;0.60;;;0.60;;
26963;SDS011;14521;48.148;-1.656;2023-08-06T17:44:19;1.65;;;0.70;;
26963;SDS011;14521;48.148;-1.656;2023-08-06T17:47:41;2.17;;;0.70;;
26963;SDS011;14521;48.148;-1.656;2023-08-06T17:54:28;1.95;;;0.45;;
26963;SDS011;14521;48.148;-1.656;2023-08-06T17:57:50;1.60;;;0.50;;
26963;SDS011;14521;48.148;-1.656;2023-08-06T18:01:13;1.10;;;0.52;;
26963;SDS011;14521;48.148;-1.656;2023-08-06T18:04:35;3.42;;;0.52;;
26963;SDS011;14521;48.148;-1.656;2023-08-06T18:07:58;2.83;;;0.55;;
26963;SDS011;14521;48.148;-1.656;2023-08-06T18:11:20;1.42;;;0.45;;
26963;SDS011;14521;48.148;-1.656;2023-08-06T18:14:43;7.10;;;0.63;;
26963;SDS011;14521;48.148;-1.656;2023-08-06T18:18:05;4.70;;;0.45;;
26963;SDS011;14521;48.148;-1.656;2023-08-06T18:21:28;8.27;;;1.08;;
26963;SDS011;14521;48.148;-1.656;2023-08-06T18:24:50;1.25;;;0.63;;
26963;SDS011;14521;48.148;-1.656;2023-08-06T18:28:12;2.25;;;0.90;;
26963;SDS011;14521;48.148;-1.656;2023-08-06T18:31:35;2.85;;;0.65;;
26963;SDS011;14521;48.148;-1.656;2023-08-06T18:34:58;4.72;;;0.90;;
26963;SDS011;14521;48.148;-1.656;2023-08-06T18:38:20;5.25;;;0.95;;
26963;SDS011;14521;48.148;-1.656;2023-08-06T18:41:47;4.20;;;1.40;;
26963;SDS011;14521;48.148;-1.656;2023-08-06T18:45:10;4.45;;;1.20;;
26963;SDS011;14521;48.148;-1.656;2023-08-06T18:48:32;8.90;;;1.17;;
26963;SDS011;14521;48.148;-1.656;2023-08-06T18:51:55;2.63;;;1.60;;
26963;SDS011;14521;48.148;-1.656;2023-08-06T18:55:17;6.78;;;2.15;;
26963;SDS011;14521;48.148;-1.656;2023-08-06T18:58:39;7.75;;;2.60;;
26963;SDS011;14521;48.148;-1.656;2023-08-06T19:02:02;8.05;;;2.65;;
26963;SDS011;14521;48.148;-1.656;2023-08-06T19:05:25;8.10;;;2.60;;
26963;SDS011;14521;48.148;-1.656;2023-08-06T19:08:48;5.45;;;2.10;;
26963;SDS011;14521;48.148;-1.656;2023-08-06T19:12:12;8.27;;;2.10;;
26963;SDS011;14521;48.148;-1.656;2023-08-06T19:15:35;4.75;;;1.95;;
26963;SDS011;14521;48.148;-1.656;2023-08-06T19:18:59;7.78;;;1.95;;
26963;SDS011;14521;48.148;-1.656;2023-08-06T19:22:21;3.47;;;1.00;;
26963;SDS011;14521;48.148;-1.656;2023-08-06T19:25:47;1.58;;;0.57;;
26963;SDS011;14521;48.148;-1.656;2023-08-06T19:29:10;2.97;;;1.08;;
26963;SDS011;14521;48.148;-1.656;2023-08-06T19:32:33;1.25;;;0.80;;
26963;SDS011;14521;48.148;-1.656;2023-08-06T19:35:56;1.10;;;0.60;;
26963;SDS011;14521;48.148;-1.656;2023-08-06T19:39:18;1.08;;;0.75;;
26963;SDS011;14521;48.148;-1.656;2023-08-06T19:42:40;3.20;;;1.00;;
26963;SDS011;14521;48.148;-1.656;2023-08-06T19:46:03;3.92;;;0.90;;
26963;SDS011;14521;48.148;-1.656;2023-08-06T19:49:25;2.45;;;0.60;;
26963;SDS011;14521;48.148;-1.656;2023-08-06T19:52:48;4.80;;;0.77;;
26963;SDS011;14521;48.148;-1.656;2023-08-06T19:56:10;2.50;;;1.00;;
26963;SDS011;14521;48.148;-1.656;2023-08-06T19:59:32;3.33;;;0.80;;
26963;SDS011;14521;48.148;-1.656;2023-08-06T20:02:55;2.97;;;1.15;;
26963;SDS011;14521;48.148;-1.656;2023-08-06T20:06:17;3.83;;;1.23;;
26963;SDS011;14521;48.148;-1.656;2023-08-06T20:09:40;3.67;;;0.95;;
26963;SDS011;14521;48.148;-1.656;2023-08-06T20:13:02;4.38;;;0.98;;
26963;SDS011;14521;48.148;-1.656;2023-08-06T20:16:25;3.47;;;0.70;;
26963;SDS011;14521;48.148;-1.656;2023-08-06T20:19:47;5.18;;;0.90;;
26963;SDS011;14521;48.148;-1.656;2023-08-06T20:23:09;1.92;;;0.70;;